createdAt,value
2022-08-05T00:00:17.878Z,86.14
2022-08-05T00:02:51.505Z,87.30
2022-08-05T00:06:02.911Z,87.72
2022-08-05T00:08:19.740Z,88.09
2022-08-05T00:10:57.130Z,87.68
2022-08-05T00:13:38.461Z,86.06
2022-08-05T00:16:12.688Z,87.75
2022-08-05T00:18:42.775Z,85.39
2022-08-05T00:21:12.677Z,85.39
2022-08-05T00:23:46.614Z,83.82
2022-08-05T00:26:22.343Z,83.80
2022-08-05T00:28:51.039Z,84.03
2022-08-05T00:31:41.513Z,83.35
2022-08-05T00:34:54.016Z,83.06
2022-08-05T00:37:11.269Z,85.69
2022-08-05T00:39:44.471Z,84.55
2022-08-05T00:42:32.654Z,85.01
2022-08-05T00:45:00.757Z,86.48
2022-08-05T00:47:53.300Z,87.07
2022-08-05T00:50:17.761Z,85.71
2022-08-05T00:52:46.771Z,84.31
2022-08-05T00:55:14.906Z,85.72
2022-08-05T00:57:58.269Z,85.00
2022-08-05T01:00:27.459Z,84.74
2022-08-05T01:02:57.236Z,84.35
2022-08-05T01:05:27.472Z,83.91
2022-08-05T01:08:42.774Z,84.89
2022-08-05T01:10:52.518Z,85.04
2022-08-05T01:13:27.532Z,85.30
2022-08-05T01:16:28.218Z,85.89
2022-08-05T01:19:02.184Z,86.35
2022-08-05T01:21:42.831Z,86.59
2022-08-05T01:24:30.702Z,86.16
2022-08-05T01:27:17.523Z,87.52
2022-08-05T01:29:50.334Z,89.00
2022-08-05T01:32:22.969Z,89.08
2022-08-05T01:34:55.356Z,89.93
2022-08-05T01:37:27.424Z,89.50
2022-08-05T01:39:58.973Z,92.78
2022-08-05T01:42:28.040Z,91.90
2022-08-05T01:44:59.163Z,90.39
2022-08-05T01:47:30.523Z,90.81
2022-08-05T01:50:15.351Z,92.60
2022-08-05T01:52:45.394Z,92.49
2022-08-05T01:55:19.521Z,93.46
2022-08-05T01:58:09.488Z,95.79
2022-08-05T02:00:39.745Z,96.92
2022-08-05T02:03:16.412Z,99.26
2022-08-05T02:05:59.616Z,99.86
2022-08-05T02:08:31.310Z,99.50
2022-08-05T02:11:03.531Z,98.79
2022-08-05T02:13:53.375Z,98.15
2022-08-05T02:16:24.945Z,98.61
2022-08-05T02:18:57.471Z,99.21
2022-08-05T02:21:28.225Z,99.89
2022-08-05T02:24:01.641Z,99.92
2022-08-05T02:26:37.601Z,99.36
2022-08-05T02:29:17.302Z,98.51
2022-08-05T02:31:55.470Z,98.47
2022-08-05T02:34:24.391Z,97.51
2022-08-05T02:36:58.099Z,98.09
2022-08-05T02:39:26.415Z,97.50
2022-08-05T02:42:00.941Z,98.06
2022-08-05T02:44:30.014Z,98.65
2022-08-05T02:47:01.083Z,97.90
2022-08-05T02:49:36.723Z,98.32
2022-08-05T02:52:08.622Z,97.86
2022-08-05T02:54:41.610Z,98.82
2022-08-05T02:58:10.885Z,98.50
2022-08-05T03:00:02.666Z,99.42
2022-08-05T03:02:35.700Z,98.26
2022-08-05T03:05:04.710Z,97.85
2022-08-05T03:08:00.147Z,97.50
2022-08-05T03:10:25.040Z,97.38
2022-08-05T03:12:53.510Z,97.94
2022-08-05T03:15:21.586Z,98.44
2022-08-05T03:17:54.159Z,98.50
2022-08-05T03:20:24.289Z,97.62
2022-08-05T03:22:52.526Z,97.77
2022-08-05T03:26:02.584Z,97.26
2022-08-05T03:28:09.920Z,97.81
2022-08-05T03:30:38.325Z,98.68
2022-08-05T03:33:10.303Z,98.57
2022-08-05T03:35:40.687Z,98.78
2022-08-05T03:38:09.113Z,98.47
2022-08-05T03:40:41.179Z,98.46
2022-08-05T03:43:58.722Z,98.34
2022-08-05T03:46:01.458Z,97.90
2022-08-05T03:48:30.943Z,99.31
2022-08-05T03:52:38.455Z,99.79
2022-08-05T03:56:01.121Z,99.92
2022-08-05T03:56:51.897Z,100.00
2022-08-05T03:59:24.527Z,100.00
2022-08-05T04:01:53.112Z,100.00
2022-08-05T04:04:28.268Z,100.00
2022-08-05T04:06:56.260Z,99.70
2022-08-05T04:09:26.557Z,98.87
2022-08-05T04:11:56.431Z,97.82
2022-08-05T04:14:29.853Z,99.82
2022-08-05T04:16:59.857Z,100.00
2022-08-05T04:19:29.708Z,100.00
2022-08-05T04:22:08.789Z,100.00
2022-08-05T04:24:44.552Z,100.00
2022-08-05T04:27:13.485Z,100.00
2022-08-05T04:29:41.488Z,100.00
2022-08-05T04:32:09.793Z,100.00
2022-08-05T04:34:42.947Z,100.00
2022-08-05T04:37:11.114Z,100.00
2022-08-05T04:39:39.174Z,100.00
2022-08-05T04:42:09.141Z,100.00
2022-08-05T04:44:36.908Z,100.00
2022-08-05T04:47:08.899Z,100.00
2022-08-05T04:50:01.485Z,100.00
2022-08-05T04:52:28.158Z,100.00
2022-08-05T04:54:57.233Z,100.00
2022-08-05T04:57:28.558Z,100.00
2022-08-05T04:59:57.544Z,98.38
2022-08-05T05:02:36.304Z,94.72
2022-08-05T05:05:16.573Z,95.16
2022-08-05T05:08:01.469Z,93.43
2022-08-05T05:10:30.326Z,93.95
2022-08-05T05:12:58.519Z,93.28
2022-08-05T05:15:56.974Z,91.47
2022-08-05T05:18:15.056Z,89.54
2022-08-05T05:20:58.492Z,88.14
2022-08-05T05:23:26.447Z,89.47
2022-08-05T05:25:54.249Z,90.18
2022-08-05T05:28:22.138Z,91.94
2022-08-05T05:30:52.645Z,92.80
2022-08-05T05:33:23.353Z,92.04
2022-08-05T05:35:51.886Z,90.39
2022-08-05T05:38:22.175Z,89.38
2022-08-05T05:40:51.566Z,90.68
2022-08-05T05:43:27.961Z,89.82
2022-08-05T05:46:13.708Z,87.55
2022-08-05T05:48:44.480Z,90.00
2022-08-05T05:51:15.285Z,88.65
2022-08-05T05:53:54.521Z,85.18
2022-08-05T05:56:32.387Z,81.94
2022-08-05T05:59:03.623Z,80.81
2022-08-05T06:01:37.877Z,78.21
2022-08-05T06:04:11.778Z,83.30
2022-08-05T06:06:41.764Z,77.73
2022-08-05T06:09:18.072Z,83.30
2022-08-05T06:12:01.035Z,76.98
2022-08-05T06:14:30.371Z,72.05
2022-08-05T06:16:58.549Z,71.17
2022-08-05T06:19:34.882Z,70.04
2022-08-05T06:22:03.479Z,69.31
2022-08-05T06:24:32.600Z,66.47
2022-08-05T06:27:00.400Z,66.25
2022-08-05T06:29:49.436Z,65.68
2022-08-05T06:32:25.056Z,64.76
2022-08-05T06:34:56.832Z,64.75
2022-08-05T06:37:56.546Z,66.91
2022-08-05T06:40:18.267Z,66.41
2022-08-05T06:42:52.168Z,64.12
2022-08-05T06:45:44.691Z,65.29
2022-08-05T06:48:36.565Z,64.89
2022-08-05T06:50:57.133Z,64.32
2022-08-05T06:53:28.417Z,63.42
2022-08-05T06:55:58.254Z,64.53
2022-08-05T06:58:35.205Z,62.62
2022-08-05T07:01:05.619Z,63.19
2022-08-05T07:03:34.034Z,64.05
2022-08-05T07:06:05.713Z,64.27
2022-08-05T07:08:42.723Z,64.24
2022-08-05T07:11:15.269Z,62.89
2022-08-05T07:14:00.780Z,63.61
2022-08-05T07:17:59.875Z,62.42
2022-08-05T07:22:28.699Z,63.26
2022-08-05T07:25:09.535Z,60.85
2022-08-05T07:27:58.047Z,61.97
2022-08-05T07:30:32.750Z,60.54
2022-08-05T07:33:01.472Z,60.99
2022-08-05T07:36:05.157Z,60.26
2022-08-05T07:38:32.581Z,59.42
2022-08-05T07:41:16.740Z,61.64
2022-08-05T07:43:55.072Z,61.59
2022-08-05T07:46:26.079Z,58.34
2022-08-05T07:49:02.218Z,57.75
2022-08-05T07:51:37.145Z,57.75
2022-08-05T07:54:09.853Z,59.20
2022-08-05T07:57:02.704Z,59.04
2022-08-05T07:59:38.402Z,58.98
2022-08-05T08:02:10.673Z,57.01
2022-08-05T08:04:45.044Z,58.00
2022-08-05T08:07:13.066Z,56.78
2022-08-05T08:09:40.862Z,57.57
2022-08-05T08:12:20.223Z,57.71
2022-08-05T08:15:01.981Z,56.89
2022-08-05T08:17:30.749Z,55.35
2022-08-05T08:20:43.977Z,56.09
2022-08-05T08:22:52.091Z,54.33
2022-08-05T08:25:26.913Z,55.31
2022-08-05T08:28:18.289Z,54.51
2022-08-05T08:30:49.665Z,54.64
2022-08-05T08:33:19.844Z,55.12
2022-08-05T08:35:53.801Z,54.43
2022-08-05T08:38:35.248Z,54.70
2022-08-05T08:41:08.585Z,54.31
2022-08-05T08:45:19.346Z,53.53
2022-08-05T08:46:28.586Z,53.21
2022-08-05T08:49:08.100Z,54.07
2022-08-05T08:52:03.433Z,52.91
2022-08-05T08:54:36.476Z,53.90
2022-08-05T08:57:11.435Z,53.28
2022-08-05T08:59:41.973Z,53.97
2022-08-05T09:02:18.942Z,51.73
2022-08-05T09:04:58.263Z,51.73
2022-08-05T09:07:39.694Z,51.84
2022-08-05T09:10:27.931Z,53.87
2022-08-05T09:13:05.061Z,52.25
2022-08-05T09:15:37.123Z,52.58
2022-08-05T09:18:10.081Z,51.31
2022-08-05T09:20:41.997Z,50.61
2022-08-05T09:23:18.980Z,52.30
2022-08-05T09:26:02.328Z,50.96
2022-08-05T09:28:34.254Z,49.75
2022-08-05T09:31:18.152Z,50.66
2022-08-05T09:33:58.586Z,49.76
2022-08-05T09:36:54.767Z,50.55
2022-08-05T09:39:42.017Z,49.78
2022-08-05T09:42:21.225Z,51.78
2022-08-05T09:45:00.437Z,50.03
2022-08-05T09:47:47.963Z,50.71
2022-08-05T09:50:38.927Z,51.01
2022-08-05T09:53:12.063Z,51.59
2022-08-05T09:56:04.049Z,50.52
2022-08-05T09:58:32.834Z,50.98
2022-08-05T10:01:02.314Z,49.27
2022-08-05T10:03:59.092Z,49.86
2022-08-05T10:06:29.126Z,47.73
2022-08-05T10:09:27.381Z,49.05
2022-08-05T10:12:29.966Z,49.00
2022-08-05T10:15:17.132Z,47.43
2022-08-05T10:17:54.512Z,47.35
2022-08-05T10:20:26.658Z,49.09
2022-08-05T10:22:57.212Z,50.34
2022-08-05T10:25:26.457Z,45.92
2022-08-05T10:28:13.681Z,47.96
2022-08-05T10:32:48.283Z,45.15
2022-08-05T10:33:35.282Z,47.04
2022-08-05T10:36:05.114Z,46.38
2022-08-05T10:38:35.265Z,45.39
2022-08-05T10:41:07.902Z,44.24
2022-08-05T10:43:42.125Z,43.06
2022-08-05T10:46:13.333Z,46.50
2022-08-05T10:48:57.071Z,44.05
2022-08-05T10:51:28.956Z,43.05
2022-08-05T10:54:00.944Z,43.89
2022-08-05T10:56:31.511Z,43.63
2022-08-05T10:59:12.213Z,45.32
2022-08-05T11:02:07.651Z,47.44
2022-08-05T11:04:44.586Z,44.59
2022-08-05T11:07:17.966Z,46.47
2022-08-05T11:10:09.549Z,46.93
2022-08-05T11:12:50.909Z,44.57
2022-08-05T11:15:58.880Z,43.78
2022-08-05T11:18:25.320Z,44.37
2022-08-05T11:20:53.516Z,44.16
2022-08-05T11:24:04.297Z,42.81
2022-08-05T11:26:28.646Z,45.62
2022-08-05T11:29:12.146Z,42.69
2022-08-05T11:31:57.715Z,44.68
2022-08-05T11:34:38.884Z,45.78
2022-08-05T11:38:26.359Z,44.90
2022-08-05T11:39:55.528Z,41.88
2022-08-05T11:42:33.149Z,42.77
2022-08-05T11:45:27.037Z,45.13
2022-08-05T11:47:56.915Z,46.39
2022-08-05T11:50:27.066Z,41.15
2022-08-05T11:53:09.879Z,39.98
2022-08-05T11:55:37.786Z,41.31
2022-08-05T11:58:10.320Z,39.88
2022-08-05T12:00:41.442Z,38.01
2022-08-05T12:03:24.065Z,38.06
2022-08-05T12:06:02.476Z,39.69
2022-08-05T12:08:32.691Z,39.48
2022-08-05T12:11:05.490Z,40.40
2022-08-05T12:13:49.670Z,41.09
2022-08-05T12:16:25.461Z,38.00
2022-08-05T12:18:55.276Z,39.90
2022-08-05T12:21:26.886Z,39.17
2022-08-05T12:24:04.274Z,40.95
2022-08-05T12:26:33.331Z,43.49
2022-08-05T12:29:03.146Z,42.38
2022-08-05T12:31:41.535Z,43.10
2022-08-05T12:34:21.262Z,42.01
2022-08-05T12:36:51.715Z,41.33
2022-08-05T12:39:20.154Z,41.60
2022-08-05T12:41:48.713Z,41.49
2022-08-05T12:44:21.635Z,41.85
2022-08-05T12:47:01.887Z,40.35
2022-08-05T12:50:04.251Z,40.44
2022-08-05T12:52:33.916Z,41.61
2022-08-05T12:55:17.899Z,41.73
2022-08-05T12:58:50.870Z,40.96
2022-08-05T13:02:01.886Z,40.35
2022-08-05T13:03:32.474Z,40.23
2022-08-05T13:06:01.110Z,41.39
2022-08-05T13:08:30.368Z,41.87
2022-08-05T13:11:02.236Z,41.02
2022-08-05T13:14:05.134Z,40.63
2022-08-05T13:16:20.767Z,40.51
2022-08-05T13:18:57.723Z,38.77
2022-08-05T13:21:48.237Z,40.34
2022-08-05T13:24:27.752Z,40.33
2022-08-05T13:27:11.207Z,39.92
2022-08-05T13:29:59.491Z,36.96
2022-08-05T13:32:39.415Z,39.45
2022-08-05T13:35:10.679Z,38.92
2022-08-05T13:37:38.506Z,37.04
2022-08-05T13:40:16.839Z,37.21
2022-08-05T13:42:55.544Z,37.05
2022-08-05T13:45:23.509Z,35.94
2022-08-05T13:48:08.708Z,39.87
2022-08-05T13:50:50.876Z,38.23
2022-08-05T13:53:21.022Z,38.18
2022-08-05T13:55:57.654Z,38.49
2022-08-05T13:58:30.742Z,39.06
2022-08-05T14:00:59.050Z,38.86
2022-08-05T14:03:38.260Z,37.88
2022-08-05T14:06:26.721Z,37.31
2022-08-05T14:08:54.661Z,38.50
2022-08-05T14:11:22.453Z,38.32
2022-08-05T14:13:55.055Z,37.39
2022-08-05T14:16:25.622Z,37.27
2022-08-05T14:18:54.771Z,38.06
2022-08-05T14:22:08.936Z,38.14
2022-08-05T14:24:12.404Z,36.69
2022-08-05T14:26:47.183Z,37.59
2022-08-05T14:29:28.111Z,36.83
2022-08-05T14:32:11.278Z,36.41
2022-08-05T14:34:45.133Z,35.81
2022-08-05T14:37:14.118Z,36.15
2022-08-05T14:39:50.002Z,35.66
2022-08-05T14:42:25.140Z,34.60
2022-08-05T14:44:53.531Z,36.01
2022-08-05T14:48:02.421Z,38.24
2022-08-05T14:50:19.147Z,39.64
2022-08-05T14:52:53.643Z,38.75
2022-08-05T14:55:25.775Z,37.86
2022-08-05T14:57:56.776Z,38.97
2022-08-05T15:00:28.026Z,38.81
2022-08-05T15:02:56.437Z,38.28
2022-08-05T15:05:29.821Z,40.21
2022-08-05T15:08:38.025Z,40.20
2022-08-05T15:11:02.910Z,40.57
2022-08-05T15:13:45.795Z,39.43
2022-08-05T15:16:14.536Z,40.18
2022-08-05T15:18:42.467Z,40.46
2022-08-05T15:21:21.182Z,38.86
2022-08-05T15:23:49.034Z,41.10
2022-08-05T15:26:17.529Z,41.07
2022-08-05T15:29:00.087Z,40.77
2022-08-05T15:31:34.969Z,41.12
2022-08-05T15:34:18.291Z,41.73
2022-08-05T15:36:52.114Z,42.65
2022-08-05T15:40:59.388Z,43.24
2022-08-05T15:42:53.469Z,43.17
2022-08-05T15:44:55.506Z,42.85
2022-08-05T15:47:23.631Z,43.27
2022-08-05T15:49:59.110Z,42.01
2022-08-05T15:52:51.867Z,41.42
2022-08-05T15:55:17.624Z,40.38
2022-08-05T15:57:48.922Z,40.84
2022-08-05T16:00:26.199Z,40.31
2022-08-05T16:03:00.685Z,40.67
2022-08-05T16:05:28.706Z,39.79
2022-08-05T16:07:57.772Z,40.59
2022-08-05T16:10:26.908Z,41.95
2022-08-05T16:12:55.962Z,41.64
2022-08-05T16:15:24.359Z,41.94
2022-08-05T16:18:00.348Z,41.21
2022-08-05T16:20:28.135Z,41.74
2022-08-05T16:22:57.392Z,41.64
2022-08-05T16:25:34.160Z,42.16
2022-08-05T16:28:05.425Z,42.21
2022-08-05T16:30:36.001Z,41.66
2022-08-05T16:33:04.081Z,41.47
2022-08-05T16:35:32.299Z,40.55
2022-08-05T16:38:15.644Z,39.47
2022-08-05T16:40:55.198Z,40.40
2022-08-05T16:43:24.149Z,40.58
2022-08-05T16:46:04.344Z,40.83
2022-08-05T16:48:40.569Z,41.66
2022-08-05T16:51:10.754Z,41.54
2022-08-05T16:54:02.934Z,41.91
2022-08-05T16:56:30.019Z,42.43
2022-08-05T16:58:57.940Z,43.40
2022-08-05T17:01:25.960Z,43.63
2022-08-05T17:03:53.860Z,44.61
2022-08-05T17:07:38.904Z,44.96
2022-08-05T17:10:08.197Z,45.23
2022-08-05T17:12:51.781Z,45.37
2022-08-05T17:15:20.197Z,46.98
2022-08-05T17:17:54.993Z,46.51
2022-08-05T17:20:23.131Z,45.71
2022-08-05T17:22:55.706Z,46.18
2022-08-05T17:25:39.421Z,46.63
2022-08-05T17:28:09.132Z,47.26
2022-08-05T17:30:42.425Z,47.54
2022-08-05T17:33:18.656Z,47.34
2022-08-05T17:36:09.111Z,48.89
2022-08-05T17:38:35.661Z,49.07
2022-08-05T17:41:04.757Z,49.36
2022-08-05T17:43:50.276Z,49.47
2022-08-05T17:46:20.759Z,49.72
2022-08-05T17:48:48.920Z,49.25
2022-08-05T17:51:21.535Z,49.42
2022-08-05T17:53:50.723Z,50.67
2022-08-05T17:56:23.930Z,50.30
2022-08-05T17:58:56.276Z,50.17
2022-08-05T18:01:24.031Z,50.65
2022-08-05T18:04:04.765Z,49.32
2022-08-05T18:06:33.704Z,50.53
2022-08-05T18:09:03.781Z,50.37
2022-08-05T18:11:34.005Z,50.36
2022-08-05T18:14:04.316Z,50.81
2022-08-05T18:16:35.043Z,52.50
2022-08-05T18:23:11.369Z,54.33
2022-08-05T18:25:45.348Z,54.18
2022-08-05T18:32:02.136Z,56.27
2022-08-05T18:35:20.499Z,60.00
2022-08-05T18:42:04.651Z,71.80
2022-08-05T18:44:49.279Z,76.29
2022-08-05T18:47:26.878Z,75.88
2022-08-05T18:50:13.245Z,75.66
2022-08-05T18:56:30.817Z,73.02
2022-08-05T19:02:49.297Z,74.80
2022-08-05T19:06:05.631Z,79.74
2022-08-05T19:08:12.222Z,76.87
2022-08-05T19:10:41.682Z,81.36
2022-08-05T19:13:15.761Z,81.95
2022-08-05T19:15:59.303Z,84.77
2022-08-05T19:22:17.106Z,83.94
2022-08-05T19:25:21.682Z,83.80
2022-08-05T19:28:36.955Z,86.67
2022-08-05T19:31:44.988Z,87.23
2022-08-05T19:34:20.134Z,89.54
2022-08-05T19:40:37.795Z,90.00
2022-08-05T19:43:07.326Z,90.99
2022-08-05T19:45:36.855Z,89.63
2022-08-05T19:48:05.468Z,90.16
2022-08-05T19:50:34.921Z,87.76
2022-08-05T19:53:09.619Z,88.03
2022-08-05T19:56:15.674Z,86.54
2022-08-05T19:58:30.113Z,89.76
2022-08-05T20:00:58.046Z,89.89
2022-08-05T20:03:26.503Z,92.60
2022-08-05T20:07:04.552Z,92.14
2022-08-05T20:09:54.350Z,89.74
2022-08-05T20:12:24.931Z,93.27
2022-08-05T20:14:53.146Z,91.37
2022-08-05T20:17:23.588Z,89.76
2022-08-05T20:19:57.628Z,89.57
2022-08-05T20:22:27.022Z,92.37
2022-08-05T20:24:55.372Z,92.25
2022-08-05T20:27:27.309Z,91.06
2022-08-05T20:30:11.419Z,94.23
2022-08-05T20:32:45.176Z,95.57
2022-08-05T20:35:13.430Z,96.74
2022-08-05T20:38:05.785Z,94.24
2022-08-05T20:40:30.542Z,93.50
2022-08-05T20:43:03.573Z,91.51
2022-08-05T20:45:56.653Z,87.82
2022-08-05T20:48:19.930Z,83.47
2022-08-05T20:50:48.219Z,84.40
2022-08-05T20:53:36.465Z,83.54
2022-08-05T20:56:08.667Z,87.14
2022-08-05T20:58:38.254Z,85.58
2022-08-05T21:01:05.976Z,82.41
2022-08-05T21:03:34.554Z,81.78
2022-08-05T21:06:02.748Z,84.43
2022-08-05T21:08:36.024Z,87.25
2022-08-05T21:11:11.590Z,82.97
2022-08-05T21:13:48.337Z,85.73
2022-08-05T21:16:29.666Z,81.52
2022-08-05T21:18:59.888Z,84.66
2022-08-05T21:21:43.849Z,86.71
2022-08-05T21:24:16.112Z,89.87
2022-08-05T21:26:53.171Z,93.53
2022-08-05T21:29:26.419Z,93.64
2022-08-05T21:31:59.495Z,93.13
2022-08-05T21:34:28.190Z,94.19
2022-08-05T21:36:56.152Z,90.90
2022-08-05T21:39:26.971Z,90.88
2022-08-05T21:42:01.878Z,91.53
2022-08-05T21:44:32.065Z,95.82
2022-08-05T21:47:00.212Z,94.82
2022-08-05T21:49:58.603Z,96.72
2022-08-05T21:52:27.431Z,99.27
2022-08-05T21:54:56.531Z,94.00
2022-08-05T21:57:32.525Z,97.18
2022-08-05T22:00:05.006Z,98.34
2022-08-05T22:02:34.779Z,100.00
2022-08-05T22:05:04.304Z,100.00
2022-08-05T22:07:40.159Z,99.04
2022-08-05T22:10:26.507Z,96.93
2022-08-05T22:12:55.208Z,94.55
2022-08-05T22:15:56.471Z,97.34
2022-08-05T22:18:15.422Z,100.00
2022-08-05T22:20:47.365Z,100.00
2022-08-05T22:24:03.037Z,100.00
2022-08-05T22:26:42.172Z,100.00
2022-08-05T22:29:18.670Z,100.00
2022-08-05T22:31:55.004Z,100.00
2022-08-05T22:34:28.690Z,100.00
2022-08-05T22:36:58.564Z,98.24
2022-08-05T22:39:32.606Z,100.00
2022-08-05T22:42:10.737Z,96.25
2022-08-05T22:44:40.848Z,100.00
2022-08-05T22:47:11.981Z,98.22
2022-08-05T22:50:20.932Z,100.00
2022-08-05T22:52:32.203Z,100.00
2022-08-05T22:55:02.091Z,100.00
2022-08-05T22:57:36.193Z,100.00
2022-08-05T23:00:07.834Z,100.00
2022-08-05T23:02:40.030Z,100.00
2022-08-05T23:05:15.323Z,100.00
2022-08-05T23:07:45.079Z,100.00
2022-08-05T23:10:20.246Z,100.00
2022-08-05T23:12:51.188Z,100.00
2022-08-05T23:15:22.269Z,100.00
2022-08-05T23:18:01.458Z,100.00
2022-08-05T23:20:30.585Z,100.00
2022-08-05T23:22:58.636Z,100.00
2022-08-05T23:25:52.618Z,100.00
2022-08-05T23:28:15.894Z,100.00
2022-08-05T23:30:53.949Z,100.00
2022-08-05T23:33:26.119Z,100.00
2022-08-05T23:36:13.779Z,100.00
2022-08-05T23:38:42.100Z,100.00
2022-08-05T23:41:10.776Z,100.00
2022-08-05T23:44:05.062Z,100.00
2022-08-05T23:46:26.407Z,100.00
2022-08-05T23:48:59.773Z,100.00
2022-08-05T23:51:53.663Z,100.00
2022-08-05T23:54:25.673Z,100.00
2022-08-05T23:56:54.937Z,100.00
2022-08-05T23:59:23.176Z,100.00
